Time;durP1;ratioP1;P1;durP2;ratioP2;P2;SDS_P1;SDS_P2;PMS_P1;PMS_P2;Temp;Humidity;BMP_temperature;BMP_pressure;BME280_temperature;BME280_humidity;BME280_pressure;Samples;Min_cycle;Max_cycle;Signal;HPM_P1;HPM_P2
2023/11/09 00:00:52;;;;;;;6.90;6.20;;;;;;;6.39;95.77;99339.22;106341;1257;71715;-76
2023/11/09 00:03:20;;;;;;;9.30;6.60;;;;;;;6.32;96.67;99335.52;106466;1259;60363;-78
2023/11/09 00:05:49;;;;;;;8.70;6.90;;;;;;;6.37;97.03;99342.42;105883;1254;60146;-76
2023/11/09 00:08:17;;;;;;;9.50;7.50;;;;;;;6.43;96.43;99341.30;105612;1260;72838;-77
2023/11/09 00:10:45;;;;;;;8.80;7.60;;;;;;;6.41;96.62;99344.09;105694;1260;70057;-79
2023/11/09 00:13:13;;;;;;;8.00;6.70;;;;;;;6.41;96.89;99345.90;105694;1258;71399;-77
2023/11/09 00:15:40;;;;;;;10.20;7.20;;;;;;;6.47;96.62;99350.60;105753;1258;59725;-77
2023/11/09 00:18:08;;;;;;;11.80;7.00;;;;;;;6.47;96.74;99347.10;105784;1259;59487;-78
2023/11/09 00:20:36;;;;;;;11.30;7.20;;;;;;;6.46;97.63;99348.39;105911;1258;72906;-80
2023/11/09 00:23:04;;;;;;;7.10;6.30;;;;;;;6.56;97.17;99348.98;105893;1253;70085;-79
2023/11/09 00:25:32;;;;;;;9.40;8.50;;;;;;;6.62;96.67;99350.53;106154;1253;71786;-80
2023/11/09 00:27:59;;;;;;;8.00;7.20;;;;;;;6.58;96.86;99349.38;106391;1253;59580;-78
2023/11/09 00:30:28;;;;;;;9.70;7.90;;;;;;;6.57;96.65;99356.47;107950;1253;61221;-78
2023/11/09 00:32:56;;;;;;;10.70;8.10;;;;;;;6.58;95.97;99353.89;107393;1254;71760;-74
2023/11/09 00:35:23;;;;;;;9.30;7.40;;;;;;;6.60;96.07;99353.15;105991;1256;69909;-75
2023/11/09 00:37:51;;;;;;;14.10;10.40;;;;;;;6.56;96.18;99350.09;105781;1253;71609;-78
2023/11/09 00:40:19;;;;;;;11.90;9.90;;;;;;;6.48;96.40;99354.01;105741;1256;61600;-78
2023/11/09 00:42:47;;;;;;;13.00;10.10;;;;;;;6.51;96.55;99353.87;105795;1255;59637;-77
2023/11/09 00:45:15;;;;;;;12.90;9.70;;;;;;;6.52;96.00;99360.25;105765;1259;71875;-77
2023/11/09 00:47:43;;;;;;;12.80;11.40;;;;;;;6.44;96.17;99360.70;105753;1259;69337;-77
2023/11/09 00:50:14;;;;;;;11.60;10.40;;;;;;;6.34;96.57;99360.97;105655;1257;72359;-76
2023/11/09 00:52:41;;;;;;;10.70;9.40;;;;;;;6.39;97.10;99364.38;105735;1255;64059;-80
2023/11/09 00:55:09;;;;;;;12.30;10.70;;;;;;;6.44;97.13;99366.31;105756;1261;60158;-78
2023/11/09 00:57:37;;;;;;;13.20;10.30;;;;;;;6.39;97.03;99362.92;105763;1261;73153;-78
2023/11/09 01:00:06;;;;;;;12.70;9.70;;;;;;;6.33;96.85;99367.65;105694;1253;68797;-77
2023/11/09 01:02:38;;;;;;;13.30;9.90;;;;;;;6.37;96.67;99363.40;105789;1256;73727;-79
2023/11/09 01:05:06;;;;;;;13.00;10.60;;;;;;;6.37;96.64;99360.92;105762;1258;60277;-79
2023/11/09 01:07:34;;;;;;;14.30;10.50;;;;;;;6.26;97.00;99363.20;105814;1259;60067;-79
2023/11/09 01:10:01;;;;;;;11.80;10.00;;;;;;;6.27;97.83;99356.98;105747;1256;71801;-79
2023/11/09 01:12:29;;;;;;;12.20;9.90;;;;;;;6.40;97.76;99356.08;105754;1254;70140;-78
2023/11/09 01:14:57;;;;;;;14.30;10.60;;;;;;;6.38;97.26;99351.30;105711;1263;72235;-77
2023/11/09 01:17:27;;;;;;;12.30;10.50;;;;;;;6.33;97.56;99355.02;105852;1260;61630;-77
2023/11/09 01:19:56;;;;;;;11.70;9.00;;;;;;;6.38;97.69;99353.72;106117;1259;59546;-74
2023/11/09 01:22:23;;;;;;;13.40;11.20;;;;;;;6.43;96.90;99349.91;105749;1260;73026;-79
2023/11/09 01:24:51;;;;;;;13.00;10.50;;;;;;;6.37;96.83;99355.58;105983;1260;68794;-76
2023/11/09 01:27:18;;;;;;;13.00;10.50;;;;;;;6.31;97.48;99356.91;106113;1259;71454;-76
2023/11/09 01:29:46;;;;;;;14.40;11.00;;;;;;;6.38;97.82;99360.67;107730;1254;61679;-74
2023/11/09 01:32:13;;;;;;;14.50;11.20;;;;;;;6.44;97.17;99360.60;106161;1254;59719;-78
2023/11/09 01:34:42;;;;;;;16.10;12.10;;;;;;;6.39;97.52;99360.36;106400;1253;71749;-77
2023/11/09 01:37:11;;;;;;;13.40;11.00;;;;;;;6.37;98.12;99360.39;105876;1260;68958;-78
2023/11/09 01:39:39;;;;;;;14.70;11.30;;;;;;;6.45;98.13;99360.64;106058;1260;71798;-78
2023/11/09 01:42:07;;;;;;;16.30;11.50;;;;;;;6.50;98.02;99361.38;105817;1261;59615;-78
2023/11/09 01:44:35;;;;;;;16.00;12.50;;;;;;;6.45;98.10;99363.12;105840;1259;60144;-77
2023/11/09 01:47:03;;;;;;;13.40;10.80;;;;;;;6.41;98.20;99365.28;105704;1254;71708;-80
2023/11/09 01:49:32;;;;;;;14.30;11.10;;;;;;;6.46;98.09;99367.71;105722;1260;68530;-77
2023/11/09 01:51:59;;;;;;;16.80;12.00;;;;;;;6.45;98.14;99366.22;105560;1260;71395;-76
2023/11/09 01:54:27;;;;;;;14.40;11.90;;;;;;;6.41;98.59;99368.56;105602;1259;62136;-77
2023/11/09 01:56:54;;;;;;;14.40;11.30;;;;;;;6.45;98.66;99371.17;105525;1260;60483;-77
2023/11/09 01:59:22;;;;;;;17.10;12.50;;;;;;;6.47;98.23;99367.13;105626;1260;73822;-77
2023/11/09 02:01:52;;;;;;;15.20;12.30;;;;;;;6.40;98.44;99364.98;105880;1258;70213;-78
2023/11/09 02:04:20;;;;;;;16.60;12.30;;;;;;;6.33;98.89;99363.73;105833;1260;74781;-77
2023/11/09 02:06:48;;;;;;;16.60;12.30;;;;;;;6.40;99.01;99364.98;105527;1262;60475;-76
2023/11/09 02:09:15;;;;;;;16.30;11.70;;;;;;;6.45;99.03;99362.74;105624;1254;60497;-78
2023/11/09 02:11:43;;;;;;;17.20;12.20;;;;;;;6.41;99.20;99365.61;105563;1255;72575;-77
2023/11/09 02:14:10;;;;;;;15.40;11.10;;;;;;;6.40;99.29;99371.17;105633;1260;69416;-78
2023/11/09 02:16:38;;;;;;;15.70;12.00;;;;;;;6.48;99.22;99378.81;105758;1259;72454;-77
2023/11/09 02:19:07;;;;;;;15.40;12.40;;;;;;;6.54;99.88;99380.02;105860;1259;60464;-79
2023/11/09 02:21:35;;;;;;;14.10;11.70;;;;;;;6.55;99.96;99373.36;105868;1259;60532;-78
2023/11/09 02:24:09;;;;;;;14.30;11.10;;;;;;;6.65;99.58;99375.40;105724;1255;73873;-78
2023/11/09 02:26:37;;;;;;;;;;;;;;;6.71;98.99;99379.41;105793;1260;68764;-78
2023/11/09 02:29:05;;;;;;;16.20;12.40;;;;;;;6.65;99.02;99372.73;105761;1260;74665;-78
2023/11/09 02:31:33;;;;;;;17.50;12.20;;;;;;;6.64;99.70;99374.14;105712;1253;62064;-80
2023/11/09 02:34:01;;;;;;;15.70;11.70;;;;;;;6.71;99.24;99372.73;105622;1261;60281;-78
2023/11/09 02:36:29;;;;;;;14.20;11.70;;;;;;;6.76;98.75;99374.14;105832;1260;74093;-78
2023/11/09 02:38:57;;;;;;;15.90;12.70;;;;;;;6.73;99.06;99377.42;105782;1259;69764;-79
2023/11/09 02:41:24;;;;;;;15.60;12.60;;;;;;;6.71;99.60;99382.04;105866;1260;72827;-78
2023/11/09 02:43:52;;;;;;;13.50;11.00;;;;;;;6.79;99.36;99384.05;105902;1257;61696;-76
2023/11/09 02:46:19;;;;;;;16.70;12.40;;;;;;;6.86;98.84;99386.69;106013;1259;60476;-78
2023/11/09 02:48:47;;;;;;;18.70;13.90;;;;;;;6.80;98.69;99387.21;105672;1269;73872;-79
2023/11/09 02:51:15;;;;;;;18.20;13.60;;;;;;;6.73;98.90;99389.55;105887;1259;68134;-81
2023/11/09 02:53:43;;;;;;;16.70;13.70;;;;;;;6.74;98.73;99394.71;105914;1259;73527;-79
2023/11/09 02:56:10;;;;;;;16.90;13.00;;;;;;;6.77;98.73;99395.89;105986;1257;60400;-76
2023/11/09 02:58:39;;;;;;;18.90;15.90;;;;;;;6.78;99.37;99397.69;105811;1254;60526;-78
2023/11/09 03:01:06;;;;;;;17.10;13.70;;;;;;;6.74;99.59;99400.58;106492;1259;73907;-77
2023/11/09 03:03:34;;;;;;;22.40;13.90;;;;;;;6.78;99.32;99402.24;106163;1260;69480;-78
2023/11/09 03:06:02;;;;;;;17.50;14.20;;;;;;;6.83;99.28;99403.70;107581;1254;72802;-78
2023/11/09 03:08:30;;;;;;;16.80;13.60;;;;;;;6.80;99.27;99407.84;106212;1256;60863;-78
2023/11/09 03:10:58;;;;;;;17.50;13.10;;;;;;;6.80;99.17;99414.24;105921;1259;60454;-79
2023/11/09 03:13:26;;;;;;;17.80;15.50;;;;;;;6.82;98.88;99416.30;106567;1254;73168;-81
2023/11/09 03:15:54;;;;;;;19.40;14.90;;;;;;;6.83;99.04;99415.16;106167;1255;70193;-80
2023/11/09 03:18:21;;;;;;;20.30;15.10;;;;;;;6.80;99.63;99417.18;105646;1254;72181;-79
2023/11/09 03:20:50;;;;;;;19.30;13.80;;;;;;;6.76;99.68;99418.98;105695;1257;62021;-76
2023/11/09 03:23:18;;;;;;;19.50;14.50;;;;;;;6.80;99.57;99421.96;105551;1259;60813;-76
2023/11/09 03:25:46;;;;;;;17.20;14.20;;;;;;;6.84;99.83;99425.77;105788;1260;73846;-80
2023/11/09 03:28:14;;;;;;;22.50;15.40;;;;;;;6.85;99.97;99431.27;105673;1260;70474;-75
2023/11/09 03:30:41;;;;;;;19.30;14.70;;;;;;;6.89;100.00;99424.98;105696;1260;71657;-77
2023/11/09 03:33:09;;;;;;;19.90;14.60;;;;;;;7.01;100.00;99422.92;105728;1254;60537;-78
2023/11/09 03:35:36;;;;;;;19.00;14.50;;;;;;;7.05;99.88;99433.17;105824;1260;61915;-77
2023/11/09 03:38:04;;;;;;;20.70;14.10;;;;;;;7.01;99.53;99426.06;106117;1255;72791;-76
2023/11/09 03:40:31;;;;;;;16.50;13.10;;;;;;;7.04;99.14;99429.75;107227;1254;70572;-79
2023/11/09 03:42:59;;;;;;;17.50;13.80;;;;;;;7.03;98.92;99429.58;105856;1260;72472;-76
2023/11/09 03:45:27;;;;;;;16.40;13.00;;;;;;;6.97;99.08;99431.77;105892;1260;61531;-78
2023/11/09 03:47:54;;;;;;;16.60;13.30;;;;;;;7.00;98.99;99430.94;106086;1254;60477;-77
2023/11/09 03:50:22;;;;;;;16.70;13.80;;;;;;;7.05;99.04;99433.41;106008;1254;72619;-76
2023/11/09 03:52:52;;;;;;;23.70;14.90;;;;;;;7.05;99.35;99431.61;106012;1258;69276;-77
2023/11/09 03:55:20;;;;;;;15.70;13.40;;;;;;;7.06;99.56;99433.13;105872;1254;70979;-75
2023/11/09 03:57:48;;;;;;;15.30;12.70;;;;;;;7.16;99.22;99435.30;105832;1259;60502;-75
2023/11/09 04:00:18;;;;;;;19.40;13.00;;;;;;;7.21;98.58;99440.59;105836;1260;60560;-73
2023/11/09 04:02:46;;;;;;;20.30;14.20;;;;;;;7.16;98.39;99440.61;105619;1254;73752;-78
2023/11/09 04:05:14;;;;;;;14.40;12.40;;;;;;;7.08;98.54;99443.09;105676;1254;69048;-75
2023/11/09 04:07:43;;;;;;;17.70;12.60;;;;;;;7.09;98.07;99444.13;105862;1268;73546;-76
2023/11/09 04:10:12;;;;;;;17.10;12.80;;;;;;;7.11;97.83;99455.40;105966;1254;60595;-77
2023/11/09 04:12:40;;;;;;;15.90;13.00;;;;;;;7.03;98.30;99450.68;106181;1253;60496;-78
2023/11/09 04:15:09;;;;;;;16.80;12.30;;;;;;;6.96;98.65;99447.81;106822;1254;72618;-80
2023/11/09 04:17:37;;;;;;;15.90;12.00;;;;;;;7.05;98.56;99450.50;106335;1254;69011;-79
2023/11/09 04:20:07;;;;;;;16.20;12.80;;;;;;;7.09;98.06;99449.00;105956;1259;72649;-80
2023/11/09 04:22:35;;;;;;;14.30;11.80;;;;;;;6.98;97.58;99449.73;106148;1254;60497;-79
2023/11/09 04:25:03;;;;;;;15.30;11.60;;;;;;;6.96;97.75;99450.81;106265;1254;60423;-80
2023/11/09 04:27:34;;;;;;;18.70;12.80;;;;;;;6.90;97.56;99454.56;105896;1261;73905;-82
2023/11/09 04:30:03;;;;;;;17.70;12.70;;;;;;;6.85;97.77;99464.21;105890;1256;68880;-82
2023/11/09 04:32:32;;;;;;;16.40;12.90;;;;;;;6.85;97.75;99465.30;105932;1258;71999;-81
2023/11/09 04:34:59;;;;;;;15.80;12.80;;;;;;;6.82;98.01;99461.02;106152;1259;60860;-80
2023/11/09 04:37:27;;;;;;;16.60;13.60;;;;;;;6.75;98.59;99463.44;107182;1254;60948;-78
2023/11/09 04:39:58;;;;;;;15.70;12.40;;;;;;;6.72;98.85;99465.17;105960;1260;73929;-80
2023/11/09 04:42:29;;;;;;;16.50;12.20;;;;;;;6.79;98.64;99466.54;105809;1254;70285;-79
2023/11/09 04:44:57;;;;;;;17.50;13.60;;;;;;;6.81;98.53;99475.56;106188;1258;72577;-80
2023/11/09 04:47:25;;;;;;;15.80;12.80;;;;;;;6.73;98.26;99478.29;105936;1258;60526;-75
2023/11/09 04:49:58;;;;;;;15.60;12.90;;;;;;;6.74;98.51;99483.98;106214;1258;60904;-77
2023/11/09 04:52:30;;;;;;;26.20;17.40;;;;;;;6.75;98.87;99481.56;106009;1254;73712;-78
2023/11/09 04:55:10;;;;;;;22.20;14.40;;;;;;;6.73;99.29;99487.45;105654;1258;68839;-77
2023/11/09 05:08:47;;;;;;;16.70;14.20;;;;;;;6.87;99.04;99505.20;105649;1261;68818;-77
2023/11/09 05:11:17;;;;;;;16.90;14.90;;;;;;;6.85;99.35;99509.24;105693;1257;72797;-76
2023/11/09 05:13:44;;;;;;;18.30;15.30;;;;;;;6.80;99.17;99509.39;105671;1259;60485;-80
2023/11/09 05:16:12;;;;;;;18.40;14.00;;;;;;;6.82;98.84;99510.33;105635;1259;60358;-80
2023/11/09 05:18:43;;;;;;;16.50;14.20;;;;;;;6.84;98.54;99512.02;105758;1254;74139;-79
2023/11/09 05:21:11;;;;;;;18.70;14.60;;;;;;;6.79;98.87;99516.08;105660;1259;69128;-78
2023/11/09 05:23:38;;;;;;;21.30;14.80;;;;;;;6.71;99.36;99521.38;105845;1257;72529;-81
2023/11/09 05:26:06;;;;;;;17.60;15.10;;;;;;;6.74;99.17;99523.08;106513;1257;61693;-77
2023/11/09 05:28:34;;;;;;;18.50;15.10;;;;;;;6.79;99.11;99522.94;106441;1254;61407;-79
2023/11/09 05:31:02;;;;;;;18.10;15.40;;;;;;;6.80;99.55;99526.86;106189;1254;72865;-77
2023/11/09 05:33:30;;;;;;;19.00;14.90;;;;;;;6.77;99.20;99529.23;106740;1254;70212;-78
2023/11/09 05:36:00;;;;;;;18.80;15.30;;;;;;;6.81;99.07;99531.15;107519;1254;71491;-78
2023/11/09 05:38:27;;;;;;;18.80;16.20;;;;;;;6.85;99.14;99528.52;106635;1260;60409;-77
2023/11/09 05:40:55;;;;;;;18.00;15.20;;;;;;;6.81;99.32;99530.59;106052;1257;60420;-79
2023/11/09 05:43:22;;;;;;;21.10;15.30;;;;;;;6.85;99.20;99534.09;106179;1254;72586;-78
2023/11/09 05:45:50;;;;;;;20.40;14.50;;;;;;;6.88;98.61;99534.83;106031;1257;69069;-76
2023/11/09 05:48:17;;;;;;;17.50;15.00;;;;;;;6.86;98.76;99539.25;106786;1254;71922;-80
2023/11/09 05:50:45;;;;;;;19.70;15.00;;;;;;;6.84;99.14;99540.00;107939;1254;60488;-77
2023/11/09 05:53:13;;;;;;;16.00;14.10;;;;;;;6.93;99.14;99540.21;106498;1254;60321;-79
2023/11/09 05:55:40;;;;;;;17.60;14.90;;;;;;;7.02;98.98;99539.13;106023;1253;72496;-77
2023/11/09 05:58:08;;;;;;;17.00;13.70;;;;;;;7.02;98.89;99543.88;106167;1258;69254;-79
2023/11/09 06:00:36;;;;;;;16.70;14.30;;;;;;;7.08;98.41;99540.01;105927;1254;70332;-84
2023/11/09 06:03:04;;;;;;;20.20;14.50;;;;;;;7.12;98.32;99539.66;106232;1254;60636;-84
2023/11/09 06:05:31;;;;;;;19.60;15.00;;;;;;;7.08;98.16;99544.73;106227;1254;60414;-87
2023/11/09 06:08:00;;;;;;;15.10;13.10;;;;;;;7.07;98.31;99543.27;108046;1253;72553;-84
2023/11/09 06:10:29;;;;;;;18.40;13.90;;;;;;;7.13;98.02;99547.64;107961;1254;71378;-85
2023/11/09 06:12:58;;;;;;;17.70;14.10;;;;;;;7.12;98.22;99546.62;106726;1254;72702;-87
2023/11/09 06:15:26;;;;;;;16.70;13.80;;;;;;;7.12;97.72;99551.73;106500;1260;60535;-84
2023/11/09 06:17:55;;;;;;;16.00;13.30;;;;;;;7.18;97.63;99555.71;106735;1253;60329;-83
2023/11/09 06:20:24;;;;;;;17.80;14.50;;;;;;;7.20;97.46;99564.38;107124;1254;72572;-82
2023/11/09 06:22:53;;;;;;;15.70;12.60;;;;;;;7.19;97.51;99561.60;106451;1259;72181;-82
2023/11/09 06:25:22;;;;;;;20.70;12.70;;;;;;;7.24;96.92;99559.05;106389;1254;71835;-82
2023/11/09 06:27:50;;;;;;;16.60;14.00;;;;;;;7.24;96.62;99565.36;106872;1254;60349;-82
2023/11/09 06:30:17;;;;;;;23.00;15.00;;;;;;;7.21;97.39;99567.60;106655;1254;60466;-82
2023/11/09 06:32:45;;;;;;;16.90;13.90;;;;;;;7.24;97.54;99577.67;106729;1257;72541;-83
2023/11/09 06:35:18;;;;;;;16.40;12.50;;;;;;;7.35;97.17;99571.52;106627;1254;69916;-82
2023/11/09 06:37:46;;;;;;;15.40;12.10;;;;;;;7.42;96.72;99576.84;106331;1253;71806;-86
2023/11/09 06:40:16;;;;;;;17.00;14.20;;;;;;;7.44;97.09;99579.96;107261;1254;60386;-83
2023/11/09 06:42:49;;;;;;;12.80;11.30;;;;;;;7.46;96.67;99578.55;107494;1253;60348;-83
2023/11/09 06:45:18;;;;;;;15.40;12.60;;;;;;;7.55;97.26;99584.38;107705;1254;72114;-83
2023/11/09 06:47:45;;;;;;;19.10;13.00;;;;;;;7.62;97.22;99582.59;106583;1253;69731;-83
2023/11/09 06:50:13;;;;;;;13.80;11.80;;;;;;;7.66;97.21;99589.41;106478;1257;73756;-79
2023/11/09 06:52:41;;;;;;;19.30;12.70;;;;;;;7.76;96.82;99588.06;106165;1253;60751;-79
2023/11/09 06:55:10;;;;;;;15.00;11.50;;;;;;;7.82;96.10;99593.06;106691;1253;60432;-84
2023/11/09 06:57:39;;;;;;;14.00;11.50;;;;;;;7.80;95.58;99594.76;107694;1257;72630;-81
2023/11/09 07:00:07;;;;;;;15.80;11.70;;;;;;;7.84;95.43;99593.64;107214;1254;70311;-81
2023/11/09 07:02:35;;;;;;;14.00;10.90;;;;;;;7.84;95.01;99596.44;106380;1253;72737;-83
2023/11/09 07:05:03;;;;;;;13.20;10.50;;;;;;;7.82;95.25;99597.76;106923;1253;60691;-82
2023/11/09 07:07:34;;;;;;;14.50;9.80;;;;;;;7.86;94.71;99597.44;107412;1258;60731;-84
2023/11/09 07:10:03;;;;;;;13.10;10.90;;;;;;;7.92;94.20;99598.69;106299;1253;73978;-82
2023/11/09 07:12:31;;;;;;;12.20;10.20;;;;;;;7.87;93.85;99599.25;106213;1253;69919;-84
2023/11/09 07:15:00;;;;;;;12.80;9.80;;;;;;;7.91;94.56;99599.77;106039;1258;72662;-83
2023/11/09 07:17:28;;;;;;;15.50;11.50;;;;;;;7.97;94.27;99608.67;105922;1258;60511;-82
2023/11/09 07:19:57;;;;;;;11.40;9.70;;;;;;;7.98;94.51;99605.27;106238;1258;60412;-83
2023/11/09 07:22:25;;;;;;;11.70;9.90;;;;;;;8.05;93.71;99611.98;106549;1253;72628;-87
2023/11/09 07:24:56;;;;;;;13.20;9.90;;;;;;;8.07;93.13;99612.98;107034;1254;70801;-86
2023/11/09 07:27:39;;;;;;;11.20;9.90;;;;;;;8.00;92.91;99614.27;107306;1254;73337;-87
2023/11/09 07:30:07;;;;;;;17.10;11.10;;;;;;;7.99;93.13;99616.27;107916;1254;60386;-87
2023/11/09 07:32:35;;;;;;;13.30;11.50;;;;;;;7.96;93.01;99618.83;108386;1253;60583;-89
2023/11/09 07:35:04;;;;;;;14.50;10.50;;;;;;;7.91;93.57;99618.85;107964;1253;73151;-85
2023/11/09 07:37:32;;;;;;;13.20;10.30;;;;;;;7.98;94.16;99618.67;107652;1258;68777;-87
2023/11/09 07:40:00;;;;;;;13.50;10.90;;;;;;;8.01;94.24;99615.58;108625;1252;71524;-85
2023/11/09 07:42:28;;;;;;;12.70;10.10;;;;;;;7.98;93.44;99619.38;108605;1253;60702;-85
2023/11/09 07:44:56;;;;;;;11.60;9.80;;;;;;;8.03;93.43;99614.45;107924;1253;60478;-86
2023/11/09 07:47:25;;;;;;;11.80;9.90;;;;;;;8.07;93.21;99611.30;107424;1253;73045;-84
2023/11/09 07:49:54;;;;;;;11.30;9.90;;;;;;;8.10;93.20;99616.92;107557;1254;68731;-87
2023/11/09 07:52:22;;;;;;;11.70;9.40;;;;;;;8.16;92.82;99619.65;107883;1254;71741;-88
2023/11/09 07:54:52;;;;;;;12.40;10.00;;;;;;;8.17;92.81;99618.90;108263;1253;60537;-83
2023/11/09 07:57:24;;;;;;;11.50;9.20;;;;;;;8.22;92.87;99623.69;108829;1251;60454;-86
2023/11/09 07:59:53;;;;;;;13.60;9.30;;;;;;;8.30;93.39;99624.80;109214;1253;72596;-85
2023/11/09 08:02:31;;;;;;;12.20;10.00;;;;;;;8.37;93.08;99627.77;109565;1253;68707;-87
2023/11/09 08:04:59;;;;;;;10.80;9.70;;;;;;;8.39;93.82;99628.42;108990;1253;71398;-85
2023/11/09 08:07:27;;;;;;;12.80;9.50;;;;;;;8.52;93.53;99629.29;107061;1253;60776;-84
2023/11/09 08:09:56;;;;;;;14.20;9.30;;;;;;;8.71;92.36;99636.57;106292;1252;60995;-84
2023/11/09 08:12:24;;;;;;;15.10;10.20;;;;;;;8.78;92.01;99633.83;106227;1253;72654;-83
2023/11/09 08:14:52;;;;;;;12.40;9.20;;;;;;;8.76;91.39;99633.35;106553;1256;70515;-84
2023/11/09 08:17:19;;;;;;;13.50;10.50;;;;;;;8.81;90.97;99640.72;106367;1254;72841;-85
2023/11/09 08:19:58;;;;;;;13.10;9.50;;;;;;;8.86;90.62;99641.67;106894;1253;60398;-85
2023/11/09 08:22:26;;;;;;;11.20;9.70;;;;;;;8.88;90.47;99643.27;106616;1253;60550;-86
2023/11/09 08:24:54;;;;;;;12.70;10.50;;;;;;;9.00;91.14;99642.18;106536;1254;74187;-84
2023/11/09 08:27:22;;;;;;;12.30;9.70;;;;;;;9.17;91.53;99644.46;106264;1253;68771;-85
2023/11/09 08:29:50;;;;;;;14.10;9.30;;;;;;;9.28;90.45;99647.08;106310;1256;72811;-80
2023/11/09 08:32:18;;;;;;;21.70;10.30;;;;;;;9.35;89.42;99647.52;106158;1253;60563;-85
2023/11/09 08:34:54;;;;;;;10.80;9.50;;;;;;;9.34;89.23;99651.29;106878;1257;60310;-82
2023/11/09 08:37:22;;;;;;;10.30;8.20;;;;;;;9.40;89.14;99656.51;106344;1253;72872;-84
2023/11/09 08:39:51;;;;;;;12.20;10.40;;;;;;;9.54;88.22;99659.08;106540;1253;71718;-87
2023/11/09 08:42:20;;;;;;;14.20;10.20;;;;;;;9.60;88.45;99664.27;106152;1253;71358;-84
2023/11/09 08:44:48;;;;;;;11.40;9.20;;;;;;;9.63;86.66;99667.20;106045;1254;63828;-81
2023/11/09 08:47:16;;;;;;;11.00;9.40;;;;;;;9.63;86.32;99664.99;106116;1253;60608;-87
2023/11/09 08:49:43;;;;;;;11.70;9.70;;;;;;;9.58;85.95;99665.05;106138;1253;72486;-82
2023/11/09 08:52:12;;;;;;;11.10;8.80;;;;;;;9.50;85.93;99667.73;106052;1253;71456;-83
2023/11/09 08:54:41;;;;;;;14.60;9.40;;;;;;;9.49;86.06;99671.65;105927;1254;73002;-81
2023/11/09 08:57:08;;;;;;;12.80;9.10;;;;;;;9.49;86.78;99669.19;106111;1253;60863;-82
2023/11/09 08:59:36;;;;;;;11.80;9.00;;;;;;;9.46;85.95;99671.64;106228;1252;60460;-83
2023/11/09 09:02:04;;;;;;;11.80;9.20;;;;;;;9.48;86.13;99678.11;106276;1254;75745;-84
2023/11/09 09:04:31;;;;;;;10.80;8.50;;;;;;;9.51;86.26;99683.84;107313;1253;71353;-82
2023/11/09 09:07:00;;;;;;;10.60;8.40;;;;;;;9.53;86.11;99680.80;107108;1253;70528;-84
2023/11/09 09:09:28;;;;;;;13.30;9.40;;;;;;;9.62;85.40;99685.83;107314;1254;62215;-80
2023/11/09 09:12:08;;;;;;;10.20;9.10;;;;;;;9.59;85.12;99688.11;108081;1252;60411;-84
2023/11/09 09:14:35;;;;;;;10.30;9.20;;;;;;;9.60;85.27;99687.11;108580;1253;72816;-85
2023/11/09 09:17:05;;;;;;;15.10;10.70;;;;;;;9.56;85.78;99690.23;108880;1251;69868;-88
2023/11/09 09:19:36;;;;;;;12.00;10.40;;;;;;;9.50;86.01;99693.13;107582;1253;70669;-83
2023/11/09 09:22:05;;;;;;;14.70;10.10;;;;;;;9.52;86.20;99697.99;106390;1259;60525;-87
2023/11/09 09:24:33;;;;;;;13.20;9.50;;;;;;;9.65;85.92;99696.00;106143;1253;61102;-84
2023/11/09 09:27:00;;;;;;;13.10;10.20;;;;;;;9.68;85.36;99696.77;106936;1253;74229;-85
2023/11/09 09:29:31;;;;;;;11.30;10.20;;;;;;;9.65;86.06;99691.66;107045;1258;71356;-83
2023/11/09 09:32:05;;;;;;;11.30;8.30;;;;;;;9.71;85.95;99693.06;106794;1253;74791;-85
2023/11/09 09:34:34;;;;;;;12.10;9.70;;;;;;;9.85;85.65;99691.23;106623;1260;60631;-83
2023/11/09 09:37:02;;;;;;;10.50;9.40;;;;;;;9.92;85.58;99696.10;106447;1253;59641;-83
2023/11/09 09:39:31;;;;;;;10.50;8.70;;;;;;;9.93;84.13;99695.23;107333;1258;73141;-85
2023/11/09 09:42:02;;;;;;;10.20;8.60;;;;;;;9.97;84.09;99694.79;108552;1253;70872;-86
2023/11/09 09:44:30;;;;;;;10.10;8.80;;;;;;;10.00;83.23;99697.02;108844;1252;74001;-85
2023/11/09 09:47:24;;;;;;;9.90;8.90;;;;;;;10.02;82.82;99696.77;109051;1252;59170;31
2023/11/09 09:49:53;;;;;;;12.40;9.80;;;;;;;10.05;83.38;99699.50;107592;1260;60876;-87
2023/11/09 09:52:22;;;;;;;13.00;9.00;;;;;;;10.01;81.65;99701.79;107532;1259;75194;-88
2023/11/09 09:54:50;;;;;;;11.00;8.70;;;;;;;10.07;82.00;99700.10;107617;1260;69406;-89
2023/11/09 09:57:20;;;;;;;10.90;9.50;;;;;;;10.38;81.12;99703.55;108184;1259;71457;-87
2023/11/09 10:02:50;;;;;;;11.80;8.90;;;;;;;11.13;80.63;99696.52;106206;1291;600350;-84
2023/11/09 10:05:18;;;;;;;9.80;8.80;;;;;;;11.52;80.29;99694.95;108055;1266;60426;-87
2023/11/09 10:08:03;;;;;;;11.00;8.50;;;;;;;12.14;80.65;99692.00;107856;1266;62260;-84
2023/11/09 10:10:34;;;;;;;11.40;8.20;;;;;;;12.80;77.43;99692.12;108767;1266;72775;-88
2023/11/09 10:13:06;;;;;;;11.60;8.70;;;;;;;13.10;75.95;99695.41;109088;1259;70905;-89
2023/11/09 10:15:37;;;;;;;11.80;9.10;;;;;;;13.19;74.13;99695.62;108339;1265;373278;-87
2023/11/09 10:18:06;;;;;;;9.90;8.90;;;;;;;13.04;72.42;99697.73;107329;1256;61651;-87
2023/11/09 10:20:35;;;;;;;10.00;9.10;;;;;;;12.99;72.03;99699.18;107245;1256;59501;-85
2023/11/09 10:23:08;;;;;;;10.50;9.40;;;;;;;12.96;70.34;99706.15;106718;1258;71226;-86
2023/11/09 10:25:36;;;;;;;10.20;8.80;;;;;;;12.79;70.01;99703.46;106569;1257;70032;-89
2023/11/09 10:28:07;;;;;;;11.60;9.20;;;;;;;12.77;71.70;99707.94;106280;1256;74854;-83
2023/11/09 10:30:44;;;;;;;11.70;8.70;;;;;;;12.92;71.63;99710.60;107391;1257;59703;-83
2023/11/09 10:33:17;;;;;;;9.00;8.10;;;;;;;13.12;69.41;99714.09;106831;1256;61979;-84
2023/11/09 10:35:46;;;;;;;;;;;;;;;13.33;68.01;99718.78;106813;1256;73217;-83
2023/11/09 10:38:20;;;;;;;10.30;9.20;;;;;;;13.20;67.29;99717.92;106907;1256;72396;-83
2023/11/09 10:40:48;;;;;;;10.00;8.90;;;;;;;12.85;68.51;99720.29;106781;1260;72953;-83
2023/11/09 10:43:36;;;;;;;10.30;9.20;;;;;;;12.48;68.58;99722.89;107940;1260;60024;-82
2023/11/09 10:46:07;;;;;;;11.40;9.50;;;;;;;12.12;68.70;99728.16;107850;1261;59726;-85
2023/11/09 10:48:40;;;;;;;12.70;10.20;;;;;;;11.76;69.69;99734.44;106513;1257;71561;-83
2023/11/09 10:51:09;;;;;;;9.90;9.00;;;;;;;11.51;70.84;99734.73;107271;1262;70768;-84
2023/11/09 10:53:41;;;;;;;9.90;8.70;;;;;;;11.58;71.28;99739.42;107839;1258;71431;-83
2023/11/09 10:56:13;;;;;;;9.70;8.60;;;;;;;11.88;70.62;99741.73;107555;1257;62549;-82
2023/11/09 10:58:44;;;;;;;9.20;8.30;;;;;;;11.96;69.31;99743.08;107553;1252;59646;-81
2023/11/09 11:01:17;;;;;;;9.10;7.90;;;;;;;11.79;68.82;99742.44;106901;1256;71621;-81
2023/11/09 11:03:51;;;;;;;9.70;8.70;;;;;;;11.55;68.88;99747.25;106268;1257;70198;-79
2023/11/09 11:06:23;;;;;;;10.10;9.10;;;;;;;11.34;69.67;99748.21;106492;1251;73664;-85
2023/11/09 11:08:54;;;;;;;9.70;8.00;;;;;;;11.17;70.06;99754.37;106570;1254;64084;-81
2023/11/09 11:11:30;;;;;;;11.70;8.10;;;;;;;11.04;70.45;99749.63;106984;1253;60110;-83
2023/11/09 11:14:05;;;;;;;11.20;9.80;;;;;;;10.77;70.76;99750.05;107212;1251;73042;-81
2023/11/09 11:16:58;;;;;;;11.60;9.70;;;;;;;10.47;71.71;99755.48;108736;1251;71117;-82
2023/11/09 11:19:35;;;;;;;10.60;9.50;;;;;;;10.25;72.85;99764.71;109147;1253;73908;-87
2023/11/09 11:22:48;;;;;;;10.20;8.00;;;;;;;10.24;73.29;99761.65;109118;1253;60186;-88
2023/11/09 11:25:56;;;;;;;9.30;8.40;;;;;;;10.26;72.70;99762.33;109172;1255;59234;-87
2023/11/09 11:28:27;;;;;;;13.10;9.10;;;;;;;10.15;73.65;99769.73;108224;1254;71819;-84
2023/11/09 11:31:03;;;;;;;9.70;8.70;;;;;;;10.02;73.53;99766.48;107360;1259;70916;-84
2023/11/09 11:33:31;;;;;;;13.00;8.20;;;;;;;10.00;73.56;99770.91;107775;1253;71534;-83
2023/11/09 11:36:00;;;;;;;8.10;7.20;;;;;;;10.03;73.49;99773.28;107455;1259;59735;-84
2023/11/09 11:38:29;;;;;;;9.20;8.20;;;;;;;9.94;73.16;99776.38;107032;1253;59534;-83
2023/11/09 11:41:22;;;;;;;8.50;7.40;;;;;;;9.76;73.69;99779.45;107940;1251;75033;-85
2023/11/09 11:43:52;;;;;;;8.70;7.10;;;;;;;9.66;74.65;99784.79;109671;1251;68975;-85